Time;durP1;ratioP1;P1;durP2;ratioP2;P2;SDS_P1;SDS_P2;PMS_P1;PMS_P2;Temp;Humidity;BMP_temperature;BMP_pressure;BME280_temperature;BME280_humidity;BME280_pressure;Samples;Min_cycle;Max_cycle;Signal;HPM_P1;HPM_P2
2024/04/17 00:02:27;;;;;;;13.27;4.22;;;;;;;6.49;100.00;101211.44;5633895;26;20010;-73
2024/04/17 00:04:58;;;;;;;23.92;5.07;;;;;;;6.45;100.00;101210.00;5633761;26;20033;-73
2024/04/17 00:07:28;;;;;;;19.77;4.22;;;;;;;6.40;100.00;101208.72;5631405;26;20042;-73
2024/04/17 00:09:59;;;;;;;14.50;4.20;;;;;;;6.32;100.00;101197.84;5631133;26;20100;-73
2024/04/17 00:12:29;;;;;;;21.83;4.15;;;;;;;6.24;100.00;101193.19;5632861;26;20014;-73
2024/04/17 00:15:00;;;;;;;28.70;4.70;;;;;;;6.18;100.00;101199.03;5633667;26;20026;-73
2024/04/17 00:17:30;;;;;;;10.02;4.10;;;;;;;6.11;100.00;101198.69;5633407;26;20003;-73
2024/04/17 00:20:02;;;;;;;18.75;4.47;;;;;;;6.07;100.00;101196.41;5628772;26;20002;-73
2024/04/17 00:22:33;;;;;;;16.80;4.57;;;;;;;6.00;100.00;101198.75;5623929;26;20445;-73
2024/04/17 00:25:03;;;;;;;14.18;4.45;;;;;;;5.90;100.00;101200.44;5633433;26;20006;-73
2024/04/17 00:27:34;;;;;;;17.17;4.22;;;;;;;5.84;100.00;101200.97;5637357;26;20002;-73
2024/04/17 00:30:06;;;;;;;24.42;5.03;;;;;;;5.79;100.00;101196.03;5634897;26;20918;-73
2024/04/17 00:32:36;;;;;;;20.30;5.20;;;;;;;5.74;100.00;101198.22;5636506;26;20084;-73
2024/04/17 00:35:06;;;;;;;15.45;5.00;;;;;;;5.70;100.00;101191.44;5637062;26;20003;-73
2024/04/17 00:37:37;;;;;;;16.02;4.82;;;;;;;5.70;100.00;101192.28;5636910;26;20492;-73
2024/04/17 00:40:08;;;;;;;14.93;4.40;;;;;;;5.71;100.00;101193.13;5642705;26;19994;-73
2024/04/17 00:42:38;;;;;;;20.58;5.70;;;;;;;5.72;100.00;101190.38;5636375;26;20075;-73
2024/04/17 00:45:09;;;;;;;15.88;4.95;;;;;;;5.69;100.00;101187.09;5636845;26;19992;-73
2024/04/17 00:47:40;;;;;;;15.23;5.32;;;;;;;5.64;100.00;101184.81;5635222;26;20014;-73
2024/04/17 00:50:11;;;;;;;17.75;5.07;;;;;;;5.59;100.00;101184.34;5634145;26;19995;-73
2024/04/17 00:52:41;;;;;;;18.05;5.15;;;;;;;5.53;100.00;101179.53;5633976;26;20072;-72
2024/04/17 00:55:12;;;;;;;27.20;6.00;;;;;;;5.49;100.00;101175.44;5636667;26;20010;-72
2024/04/17 00:57:44;;;;;;;37.08;7.85;;;;;;;5.50;100.00;101181.59;5636578;26;19998;-73
2024/04/17 01:00:14;;;;;;;20.25;5.97;;;;;;;5.50;100.00;101187.75;5635472;26;20025;-73
2024/04/17 01:02:45;;;;;;;22.58;6.13;;;;;;;5.54;100.00;101188.38;5637589;26;19998;-72
2024/04/17 01:05:16;;;;;;;30.48;7.32;;;;;;;5.53;100.00;101176.88;5637103;26;20014;-73
2024/04/17 01:07:47;;;;;;;31.85;6.60;;;;;;;5.52;100.00;101176.97;5636567;26;19999;-73
2024/04/17 01:10:17;;;;;;;18.00;6.13;;;;;;;5.50;100.00;101171.78;5634669;26;20327;-72
2024/04/17 01:12:48;;;;;;;13.65;6.18;;;;;;;5.43;100.00;101183.91;5634873;26;20007;-73
2024/04/17 01:15:21;;;;;;;15.45;5.72;;;;;;;5.40;100.00;101186.81;5636687;26;19995;-73
2024/04/17 01:17:52;;;;;;;17.90;5.93;;;;;;;5.29;100.00;101185.03;5635877;26;20423;-72
2024/04/17 01:20:23;;;;;;;29.88;6.93;;;;;;;5.25;100.00;101183.59;5634878;26;20018;-72
2024/04/17 01:22:54;;;;;;;18.35;6.63;;;;;;;5.21;100.00;101182.13;5635833;26;20627;-73
2024/04/17 01:25:24;;;;;;;19.13;7.65;;;;;;;5.17;100.00;101191.31;5636731;26;20010;-72
2024/04/17 01:28:11;;;;;;;14.60;6.47;;;;;;;5.16;100.00;101190.47;5635900;26;20075;-73
2024/04/17 01:30:42;;;;;;;18.27;6.95;;;;;;;5.14;100.00;101189.75;5634590;26;20014;-73
2024/04/17 01:33:13;;;;;;;24.70;6.75;;;;;;;5.11;100.00;101183.84;5635887;26;20013;-72
2024/04/17 01:35:44;;;;;;;27.48;8.23;;;;;;;5.11;100.00;101186.50;5636148;26;20013;-72
2024/04/17 01:38:15;;;;;;;25.58;8.43;;;;;;;5.09;100.00;101185.78;5635039;26;20340;-72
2024/04/17 01:40:45;;;;;;;21.85;8.57;;;;;;;5.08;100.00;101189.41;5635380;26;20022;-71
2024/04/17 01:43:15;;;;;;;20.17;8.27;;;;;;;5.02;100.00;101184.56;5636859;26;19999;-71
2024/04/17 01:45:47;;;;;;;24.75;8.10;;;;;;;5.01;100.00;101188.19;5637041;26;20080;-71
2024/04/17 01:48:18;;;;;;;27.65;8.13;;;;;;;5.02;100.00;101176.59;5636806;26;20060;-71
2024/04/17 01:50:48;;;;;;;23.95;8.20;;;;;;;5.05;100.00;101179.84;5634174;26;20445;-72
2024/04/17 01:53:19;;;;;;;28.40;8.40;;;;;;;5.06;100.00;101175.38;5635938;26;20006;-72
2024/04/17 01:55:49;;;;;;;30.20;9.43;;;;;;;5.06;100.00;101173.56;5631781;26;20002;-72
2024/04/17 01:58:20;;;;;;;24.35;10.20;;;;;;;5.06;100.00;101170.06;5634146;26;20013;-72
2024/04/17 02:00:51;;;;;;;26.33;8.15;;;;;;;5.07;100.00;101174.41;5634316;26;20101;-71
2024/04/17 02:03:22;;;;;;;22.88;8.23;;;;;;;5.07;100.00;101177.06;5636334;26;19998;-71
2024/04/17 02:05:52;;;;;;;29.95;9.10;;;;;;;5.15;100.00;101182.63;5636637;26;20520;-71
2024/04/17 02:08:31;;;;;;;36.47;10.13;;;;;;;5.28;100.00;101180.69;5636399;26;19995;-71
2024/04/17 02:11:03;;;;;;;36.42;11.23;;;;;;;5.42;100.00;101177.75;5634306;26;20312;-71
2024/04/17 02:13:34;;;;;;;34.90;11.52;;;;;;;5.54;100.00;101177.72;5633460;26;20075;-71
2024/04/17 02:16:06;;;;;;;36.95;10.10;;;;;;;5.60;100.00;101185.19;5636571;26;20078;-71
2024/04/17 02:18:37;;;;;;;29.08;11.00;;;;;;;5.72;100.00;101178.84;5636371;26;20010;-72
2024/04/17 02:21:08;;;;;;;31.92;11.32;;;;;;;5.84;100.00;101191.16;5633798;26;20042;-71
2024/04/17 02:23:38;;;;;;;37.47;10.82;;;;;;;5.95;100.00;101201.78;5636356;26;20077;-72
2024/04/17 02:26:09;;;;;;;33.42;10.45;;;;;;;6.10;100.00;101209.47;5635683;26;19990;-71
2024/04/17 02:28:40;;;;;;;31.58;10.15;;;;;;;6.30;100.00;101221.13;5635601;26;19999;-71
2024/04/17 02:31:10;;;;;;;28.00;9.43;;;;;;;6.31;100.00;101230.81;5634157;26;20003;-72
2024/04/17 02:33:41;;;;;;;23.80;6.50;;;;;;;6.59;100.00;101238.16;5634429;26;20003;-72
2024/04/17 02:36:12;;;;;;;21.40;5.60;;;;;;;6.63;100.00;101244.09;5635760;26;19999;-71
2024/04/17 02:38:43;;;;;;;16.98;4.75;;;;;;;6.66;100.00;101251.78;5635415;26;20044;-72
2024/04/17 02:41:14;;;;;;;10.50;4.05;;;;;;;6.79;100.00;101252.44;5633546;26;20010;-71
2024/04/17 02:43:45;;;;;;;14.05;2.92;;;;;;;6.78;100.00;101249.91;5635697;26;19999;-71
2024/04/17 02:46:15;;;;;;;12.57;3.90;;;;;;;6.85;100.00;101251.06;5635010;26;19998;-71
2024/04/17 02:48:46;;;;;;;16.40;3.58;;;;;;;6.90;100.00;101255.03;5634699;26;20013;-72
2024/04/17 02:51:16;;;;;;;10.88;3.20;;;;;;;6.84;100.00;101244.91;5633854;26;19999;-71
2024/04/17 02:53:47;;;;;;;8.23;2.50;;;;;;;6.89;100.00;101232.00;5635688;26;19999;-73
2024/04/17 02:56:18;;;;;;;7.30;2.22;;;;;;;6.93;100.00;101235.25;5635731;26;20382;-71
2024/04/17 02:58:48;;;;;;;9.30;2.08;;;;;;;6.93;100.00;101230.78;5634941;26;20014;-70
2024/04/17 03:01:19;;;;;;;11.07;2.22;;;;;;;6.91;100.00;101230.03;5628992;26;19999;-71
2024/04/17 03:03:49;;;;;;;5.75;1.85;;;;;;;6.89;100.00;101213.34;5633131;26;19999;-73
2024/04/17 03:06:20;;;;;;;7.22;2.08;;;;;;;6.93;100.00;101208.59;5635093;26;20376;-72
2024/04/17 03:08:51;;;;;;;4.38;1.95;;;;;;;6.88;100.00;101206.31;5634108;26;19999;-72
2024/04/17 03:11:21;;;;;;;5.53;2.28;;;;;;;6.87;100.00;101209.09;5632471;26;20003;-72
2024/04/17 03:13:52;;;;;;;5.50;2.17;;;;;;;6.89;100.00;101207.16;5635052;26;20093;-72
2024/04/17 03:16:23;;;;;;;5.60;2.00;;;;;;;6.91;100.00;101207.88;5634365;26;20039;-71
2024/04/17 03:18:53;;;;;;;5.88;2.03;;;;;;;6.90;100.00;101212.34;5633975;26;20051;-72
2024/04/17 03:21:24;;;;;;;9.60;2.40;;;;;;;6.88;100.00;101205.47;5633332;26;19998;-72
2024/04/17 03:23:54;;;;;;;7.72;3.03;;;;;;;6.87;100.00;101209.94;5635340;26;20003;-71
2024/04/17 03:26:25;;;;;;;11.25;2.80;;;;;;;6.86;100.00;101216.25;5635024;26;20441;-71
2024/04/17 03:28:55;;;;;;;13.70;2.92;;;;;;;6.86;100.00;101212.75;5634785;26;19999;-71
2024/04/17 03:31:26;;;;;;;13.57;3.15;;;;;;;6.86;100.00;101218.94;5633163;26;20359;-71
2024/04/17 03:33:56;;;;;;;12.18;3.22;;;;;;;6.86;100.00;101215.41;5634729;26;20388;-71
2024/04/17 03:36:27;;;;;;;7.88;2.90;;;;;;;6.91;100.00;101226.53;5634643;26;20003;-71
2024/04/17 03:38:57;;;;;;;6.45;2.97;;;;;;;6.86;100.00;101224.25;5634154;26;20015;-71
2024/04/17 03:41:28;;;;;;;10.07;4.35;;;;;;;6.85;100.00;101219.91;5633053;26;20009;-71
2024/04/17 03:43:58;;;;;;;9.63;4.03;;;;;;;6.86;100.00;101231.41;5634697;26;20018;-71
2024/04/17 03:46:28;;;;;;;14.38;4.03;;;;;;;6.86;100.00;101226.09;5634513;26;20002;-71
2024/04/17 03:48:59;;;;;;;23.23;13.30;;;;;;;6.87;100.00;101233.94;5633722;26;20025;-71
2024/04/17 03:51:29;;;;;;;28.95;17.23;;;;;;;6.88;100.00;101241.00;5633525;26;20011;-71
2024/04/17 03:54:00;;;;;;;33.97;22.17;;;;;;;6.92;100.00;101234.38;5634559;26;20909;-71
2024/04/17 03:56:30;;;;;;;24.08;17.60;;;;;;;7.03;100.00;101248.63;5634188;26;20003;-71
2024/04/17 03:59:01;;;;;;;26.00;10.25;;;;;;;7.05;100.00;101246.69;5635796;26;20006;-73
2024/04/17 04:01:36;;;;;;;13.15;7.00;;;;;;;7.07;100.00;101247.38;5634637;26;20006;-70
2024/04/17 04:04:06;;;;;;;16.25;6.53;;;;;;;7.07;100.00;101242.03;5638227;26;20328;-71
2024/04/17 04:06:37;;;;;;;13.60;5.05;;;;;;;7.12;100.00;101234.47;5638184;26;20003;-71
2024/04/17 04:09:07;;;;;;;21.58;10.48;;;;;;;7.07;100.00;101234.03;5637188;26;20012;-71
2024/04/17 04:11:38;;;;;;;26.13;11.93;;;;;;;7.08;100.00;101238.38;5635868;26;20075;-71
2024/04/17 04:14:08;;;;;;;17.67;8.00;;;;;;;7.11;100.00;101251.47;5637792;26;20465;-71
2024/04/17 04:16:39;;;;;;;16.67;8.23;;;;;;;7.17;100.00;101237.59;5637429;26;20003;-71
2024/04/17 04:19:09;;;;;;;20.08;6.95;;;;;;;7.15;100.00;101232.41;5636483;26;20003;-72
2024/04/17 04:21:40;;;;;;;19.38;6.72;;;;;;;7.13;100.00;101231.69;5635836;26;20347;-70
2024/04/17 04:24:11;;;;;;;24.38;6.28;;;;;;;7.15;100.00;101228.88;5638100;26;19999;-71
2024/04/17 04:26:41;;;;;;;17.33;6.18;;;;;;;7.11;100.00;101227.47;5637416;26;20071;-71
2024/04/17 04:29:12;;;;;;;19.85;5.38;;;;;;;6.99;100.00;101230.22;5638164;26;19995;-71
2024/04/17 04:31:42;;;;;;;31.63;8.35;;;;;;;6.93;100.00;101230.78;5636335;26;20124;-71
2024/04/17 04:34:13;;;;;;;16.42;6.82;;;;;;;6.95;100.00;101234.13;5637167;26;20018;-71
2024/04/17 04:36:43;;;;;;;21.83;7.53;;;;;;;6.89;100.00;101231.16;5637575;26;19999;-71
2024/04/17 04:39:14;;;;;;;20.20;7.65;;;;;;;6.84;100.00;101225.38;5637167;26;20024;-72
2024/04/17 04:41:44;;;;;;;24.58;7.45;;;;;;;6.83;100.00;101226.34;5635883;26;20071;-72
2024/04/17 04:44:14;;;;;;;16.73;7.20;;;;;;;6.81;100.00;101228.31;5636628;26;20038;-71
2024/04/17 04:46:46;;;;;;;17.58;8.23;;;;;;;6.78;100.00;101229.44;5636833;26;20459;-71
2024/04/17 04:49:16;;;;;;;22.25;9.95;;;;;;;6.74;100.00;101226.19;5636017;26;19995;-71
2024/04/17 04:51:47;;;;;;;24.88;8.38;;;;;;;6.71;100.00;101225.59;5636470;26;20022;-71
2024/04/17 04:54:17;;;;;;;22.55;8.43;;;;;;;6.63;100.00;101226.25;5637109;26;19998;-71
2024/04/17 04:56:50;;;;;;;20.27;8.38;;;;;;;6.62;100.00;101232.53;5637175;26;20454;-71
2024/04/17 04:59:21;;;;;;;25.52;9.73;;;;;;;6.65;100.00;101231.44;5636145;26;20076;-71
2024/04/17 05:01:52;;;;;;;24.08;8.95;;;;;;;6.56;100.00;101237.56;5636046;26;20456;-71
2024/04/17 05:04:22;;;;;;;26.17;9.50;;;;;;;6.44;100.00;101232.31;5637366;26;20451;-71
2024/04/17 05:06:52;;;;;;;25.23;10.35;;;;;;;6.42;100.00;101238.72;5637457;26;20018;-71
2024/04/17 05:09:23;;;;;;;27.77;11.32;;;;;;;6.41;100.00;101234.38;5636432;26;20002;-71
2024/04/17 05:11:54;;;;;;;30.15;11.70;;;;;;;6.43;100.00;101237.78;5635897;26;20019;-71
2024/04/17 05:14:24;;;;;;;30.73;13.55;;;;;;;6.42;100.00;101231.56;5631775;26;23499;-71
2024/04/17 05:16:55;;;;;;;30.35;12.48;;;;;;;6.44;100.00;101234.97;5631548;26;19995;-71
2024/04/17 05:19:25;;;;;;;31.13;13.95;;;;;;;6.49;100.00;101242.59;5636427;26;20003;-71
2024/04/17 05:21:56;;;;;;;29.85;14.25;;;;;;;6.51;100.00;101237.13;5636464;26;20464;-71
2024/04/17 05:24:26;;;;;;;31.95;12.93;;;;;;;6.58;100.00;101238.31;5636050;26;20010;-71
2024/04/17 05:26:57;;;;;;;30.02;11.82;;;;;;;6.59;100.00;101234.66;5637469;26;19995;-71
2024/04/17 05:29:27;;;;;;;32.33;11.68;;;;;;;6.61;100.00;101232.69;5635921;26;20015;-71
2024/04/17 05:31:57;;;;;;;22.63;10.88;;;;;;;6.60;100.00;101231.84;5635166;26;19999;-71
2024/04/17 05:34:28;;;;;;;27.73;11.13;;;;;;;6.56;100.00;101224.25;5636563;26;20436;-72
2024/04/17 05:36:59;;;;;;;21.92;11.27;;;;;;;6.52;100.00;101234.31;5635585;26;20464;-71
2024/04/17 05:39:32;;;;;;;26.42;9.93;;;;;;;6.46;100.00;101221.50;5637262;26;20073;-71
2024/04/17 05:42:02;;;;;;;26.40;11.35;;;;;;;6.43;100.00;101225.28;5635341;26;20049;-71
2024/04/17 05:44:33;;;;;;;35.00;12.20;;;;;;;6.49;100.00;101230.09;5635305;26;20010;-71
2024/04/17 05:47:04;;;;;;;31.70;13.82;;;;;;;6.59;100.00;101229.31;5635307;26;19991;-72
2024/04/17 05:49:34;;;;;;;34.47;14.73;;;;;;;6.76;100.00;101236.69;5636305;26;20374;-71
2024/04/17 05:52:09;;;;;;;38.88;15.40;;;;;;;7.14;100.00;101229.88;5634319;26;19991;-71
2024/04/17 05:54:39;;;;;;;45.20;19.73;;;;;;;7.77;100.00;101227.75;5636418;26;19999;-72
2024/04/17 05:57:10;;;;;;;47.05;19.92;;;;;;;8.51;100.00;101236.09;5635090;26;20039;-72
2024/04/17 05:59:40;;;;;;;32.97;11.57;;;;;;;9.17;100.00;101245.06;5635800;26;19999;-72
2024/04/17 06:02:11;;;;;;;43.67;8.63;;;;;;;9.64;100.00;101244.94;5634130;26;20002;-72
2024/04/17 06:04:42;;;;;;;18.27;7.28;;;;;;;10.17;100.00;101242.31;5636451;26;19999;-73
2024/04/17 06:07:13;;;;;;;30.83;10.90;;;;;;;10.60;100.00;101246.88;5636166;26;20016;-73
2024/04/17 06:09:43;;;;;;;40.20;7.88;;;;;;;10.95;100.00;101249.63;5635072;26;19998;-73
2024/04/17 06:12:14;;;;;;;23.55;7.03;;;;;;;11.32;100.00;101249.31;5634473;26;19991;-73
2024/04/17 06:14:44;;;;;;;14.10;6.32;;;;;;;11.54;100.00;101254.09;5635235;26;20397;-73
2024/04/17 06:17:15;;;;;;;10.45;4.80;;;;;;;11.99;100.00;101254.75;5635552;26;19999;-72
2024/04/17 06:19:45;;;;;;;15.48;5.90;;;;;;;12.32;100.00;101247.56;5635740;26;20003;-73
2024/04/17 06:22:17;;;;;;;16.33;4.85;;;;;;;12.67;100.00;101257.13;5632815;26;20003;-72
2024/04/17 06:24:47;;;;;;;13.30;5.78;;;;;;;12.77;100.00;101251.56;5635955;26;20016;-73
2024/04/17 06:27:18;;;;;;;12.88;3.42;;;;;;;12.96;100.00;101252.03;5634883;26;20370;-73
2024/04/17 06:29:48;;;;;;;16.73;4.00;;;;;;;13.05;100.00;101254.69;5633745;26;19998;-74
2024/04/17 06:32:19;;;;;;;14.57;4.80;;;;;;;13.10;100.00;101255.00;5624323;26;20020;-74
2024/04/17 06:34:49;;;;;;;9.73;3.40;;;;;;;13.45;100.00;101253.75;5630342;26;20033;-74
2024/04/17 06:37:20;;;;;;;7.90;2.47;;;;;;;13.42;100.00;101249.56;5631200;26;20002;-74
2024/04/17 06:39:51;;;;;;;14.02;3.22;;;;;;;13.16;100.00;101252.50;5633114;26;20003;-74
2024/04/17 06:42:21;;;;;;;13.40;3.10;;;;;;;13.31;100.00;101254.50;5630332;26;20003;-74
2024/04/17 06:44:52;;;;;;;10.93;2.72;;;;;;;13.51;100.00;101250.38;5630252;26;20003;-74
2024/04/17 06:47:22;;;;;;;10.13;2.45;;;;;;;13.84;100.00;101244.78;5631359;26;20018;-74
2024/04/17 06:49:53;;;;;;;13.48;3.15;;;;;;;13.96;100.00;101248.78;5631795;26;20358;-75
2024/04/17 06:52:24;;;;;;;12.57;2.67;;;;;;;14.17;100.00;101250.81;5630160;26;20021;-74
2024/04/17 06:54:55;;;;;;;14.85;3.03;;;;;;;14.48;100.00;101245.34;5632519;26;20096;-74
2024/04/17 06:57:26;;;;;;;14.10;4.05;;;;;;;14.56;100.00;101244.44;5630277;26;20068;-74
2024/04/17 06:59:56;;;;;;;11.82;3.60;;;;;;;14.85;100.00;101249.88;5630891;26;20488;-73
2024/04/17 07:02:27;;;;;;;10.73;3.83;;;;;;;14.87;100.00;101238.91;5631119;26;20026;-73
2024/04/17 07:04:57;;;;;;;11.50;2.33;;;;;;;14.97;100.00;101239.50;5630870;26;20013;-73
2024/04/17 07:07:27;;;;;;;12.93;3.08;;;;;;;15.17;100.00;101245.19;5631803;26;20003;-73
2024/04/17 07:09:58;;;;;;;15.50;3.65;;;;;;;15.30;100.00;101242.63;5628599;26;19999;-74
2024/04/17 07:12:29;;;;;;;10.40;2.50;;;;;;;15.43;100.00;101239.28;5630422;26;20128;-74
2024/04/17 07:14:59;;;;;;;10.93;2.22;;;;;;;15.42;100.00;101243.03;5631104;26;20046;-75
2024/04/17 07:17:30;;;;;;;14.20;3.47;;;;;;;15.43;100.00;101247.38;5631573;26;20003;-74
2024/04/17 07:20:00;;;;;;;6.15;2.58;;;;;;;15.39;100.00;101249.63;5630759;26;20010;-74
2024/04/17 07:22:31;;;;;;;12.73;3.63;;;;;;;15.24;100.00;101251.50;5631196;26;20005;-74
2024/04/17 07:25:02;;;;;;;13.68;2.92;;;;;;;15.31;100.00;101241.59;5629748;26;20337;-74
2024/04/17 07:27:33;;;;;;;11.65;2.40;;;;;;;15.19;100.00;101243.94;5630588;26;20003;-72
2024/04/17 07:30:04;;;;;;;10.63;2.60;;;;;;;15.40;100.00;101243.19;5624346;26;20063;-73
2024/04/17 07:32:34;;;;;;;8.00;2.28;;;;;;;15.45;100.00;101243.47;5630350;26;20010;-72
2024/04/17 07:35:06;;;;;;;12.30;3.28;;;;;;;15.34;100.00;101238.53;5634197;26;20013;-72
2024/04/17 07:37:36;;;;;;;13.10;3.22;;;;;;;15.40;100.00;101234.25;5635167;26;19994;-72
2024/04/17 07:40:08;;;;;;;9.00;2.53;;;;;;;15.91;100.00;101245.06;5630006;26;20518;-74
2024/04/17 07:42:38;;;;;;;9.98;2.33;;;;;;;15.94;100.00;101241.97;5634712;26;20038;-74
2024/04/17 07:45:09;;;;;;;12.15;3.05;;;;;;;15.97;100.00;101234.34;5633247;26;20009;-74
2024/04/17 07:47:42;;;;;;;13.10;3.70;;;;;;;15.95;100.00;101236.38;5634367;26;19995;-74
2024/04/17 07:50:13;;;;;;;18.70;3.85;;;;;;;15.94;100.00;101225.75;5617442;26;20334;-74
2024/04/17 07:52:43;;;;;;;13.70;3.45;;;;;;;16.36;100.00;101226.75;5633388;26;20011;-73
2024/04/17 07:55:15;;;;;;;19.60;3.20;;;;;;;16.76;100.00;101231.50;5632660;26;20009;-73
2024/04/17 07:57:46;;;;;;;15.88;3.10;;;;;;;16.47;100.00;101231.69;5593788;26;19999;-73
2024/04/17 08:00:16;;;;;;;15.95;3.38;;;;;;;16.32;100.00;101223.63;5632570;26;20007;-73
2024/04/17 08:02:47;;;;;;;10.57;2.63;;;;;;;16.61;100.00;101225.31;5634683;26;19999;-72
2024/04/17 08:05:18;;;;;;;11.63;2.78;;;;;;;16.80;100.00;101221.09;5632330;26;19999;-73
2024/04/17 08:07:49;;;;;;;13.90;2.85;;;;;;;16.71;100.00;101212.28;5634750;26;19998;-74
2024/04/17 08:10:19;;;;;;;14.75;3.22;;;;;;;17.11;100.00;101209.00;5629564;26;20401;-72
2024/04/17 08:12:53;;;;;;;13.77;3.75;;;;;;;17.03;100.00;101212.72;5625138;26;20047;-73
2024/04/17 08:15:23;;;;;;;14.65;3.78;;;;;;;16.22;100.00;101209.59;5611240;26;20003;-73
2024/04/17 08:17:54;;;;;;;14.90;6.30;;;;;;;15.20;100.00;101215.06;5619862;26;20015;-74
2024/04/17 08:20:25;;;;;;;10.45;2.50;;;;;;;14.46;100.00;101215.81;5615592;26;20022;-74
2024/04/17 08:22:55;;;;;;;13.68;2.30;;;;;;;13.43;100.00;101209.97;5612924;26;20080;-73
2024/04/17 08:25:26;;;;;;;10.93;2.08;;;;;;;12.34;100.00;101216.78;5625616;26;20028;-75
2024/04/17 08:27:56;;;;;;;16.88;2.63;;;;;;;11.45;100.00;101217.47;5627036;26;20035;-75
2024/04/17 08:30:27;;;;;;;12.75;1.98;;;;;;;10.99;100.00;101221.44;5616481;26;20011;-75
2024/04/17 08:32:58;;;;;;;12.40;2.75;;;;;;;10.65;100.00;101218.75;5626873;26;20017;-74
2024/04/17 08:35:28;;;;;;;14.05;2.42;;;;;;;10.42;100.00;101215.72;5609872;26;20039;-75
2024/04/17 08:37:59;;;;;;;15.90;3.03;;;;;;;10.26;100.00;101211.91;5628399;26;20444;-74
2024/04/17 08:40:30;;;;;;;20.77;2.15;;;;;;;10.15;100.00;101206.78;5610590;26;20000;-74
2024/04/17 08:43:04;;;;;;;12.82;2.22;;;;;;;9.99;100.00;101203.94;5624689;26;20017;-74
2024/04/17 08:45:35;;;;;;;12.68;1.95;;;;;;;9.95;100.00;101206.09;5629285;26;20007;-74
2024/04/17 08:48:08;;;;;;;18.77;2.22;;;;;;;9.93;100.00;101205.38;5622851;26;19999;-74
2024/04/17 08:50:41;;;;;;;13.45;1.90;;;;;;;10.58;100.00;101211.31;5625125;26;20011;-75
2024/04/17 08:53:16;;;;;;;9.60;2.25;;;;;;;11.69;100.00;101216.69;5617229;26;19999;-73
2024/04/17 08:55:47;;;;;;;13.18;1.85;;;;;;;12.61;100.00;101214.75;5630172;26;20467;-73
2024/04/17 08:58:19;;;;;;;9.07;1.92;;;;;;;13.48;100.00;101216.50;5623759;26;20002;-74
2024/04/17 09:00:50;;;;;;;17.30;2.33;;;;;;;14.24;100.00;101208.59;5620426;26;19999;-74
2024/04/17 09:03:23;;;;;;;14.60;3.15;;;;;;;15.03;100.00;101209.84;5632630;26;20534;-74
2024/04/17 09:05:53;;;;;;;18.00;2.40;;;;;;;15.76;100.00;101210.81;5630939;26;20003;-75
2024/04/17 09:08:24;;;;;;;11.65;2.15;;;;;;;15.58;100.00;101204.94;5634368;26;20003;-74
2024/04/17 09:10:56;;;;;;;12.77;2.40;;;;;;;15.17;100.00;101205.47;5622792;26;20400;-75
2024/04/17 09:13:27;;;;;;;36.00;4.03;;;;;;;14.89;100.00;101207.16;5618240;26;20349;-75
2024/04/17 09:15:58;;;;;;;81.63;6.72;;;;;;;14.67;100.00;101207.03;5621020;26;19996;-74
2024/04/17 09:18:28;;;;;;;38.95;4.38;;;;;;;14.30;100.00;101198.91;5633723;26;20035;-75
2024/04/17 09:21:00;;;;;;;21.48;2.53;;;;;;;14.29;100.00;101205.34;5627531;26;20006;-75
2024/04/17 09:23:30;;;;;;;22.25;3.33;;;;;;;14.38;100.00;101201.56;5619723;26;20007;-75
2024/04/17 09:26:12;;;;;;;13.38;2.70;;;;;;;14.36;100.00;101207.16;5630113;26;20366;-75
2024/04/17 09:28:43;;;;;;;7.45;1.70;;;;;;;14.06;100.00;101203.50;5622191;26;20000;-75
2024/04/17 09:31:14;;;;;;;9.23;1.70;;;;;;;13.96;100.00;101201.06;5619395;26;20014;-74
2024/04/17 09:33:45;;;;;;;8.82;2.00;;;;;;;14.28;100.00;101200.97;5618203;26;19999;-74
2024/04/17 09:36:17;;;;;;;12.07;1.40;;;;;;;14.48;100.00;101205.69;5618666;26;20005;-75
2024/04/17 09:38:47;;;;;;;3.45;0.70;;;;;;;14.20;100.00;101210.78;5616221;26;19995;-74
2024/04/17 09:41:19;;;;;;;4.38;0.90;;;;;;;13.84;100.00;101215.13;5619498;26;20005;-74
2024/04/17 09:43:56;;;;;;;2.85;0.80;;;;;;;13.34;100.00;101216.41;5627589;26;20018;-74
2024/04/17 09:46:31;;;;;;;3.80;1.00;;;;;;;12.91;100.00;101211.31;5614323;26;20444;-74
2024/04/17 09:49:09;;;;;;;4.65;2.72;;;;;;;12.50;100.00;101224.03;5623644;26;20002;-73
2024/04/17 09:51:42;;;;;;;4.65;1.35;;;;;;;12.08;100.00;101225.00;5622544;26;20014;-74
2024/04/17 09:54:14;;;;;;;4.53;0.98;;;;;;;11.75;100.00;101231.34;5626152;26;20029;-74
2024/04/17 09:56:46;;;;;;;4.85;1.08;;;;;;;11.45;100.00;101214.78;5624421;26;20355;-74
2024/04/17 09:59:20;;;;;;;2.97;1.20;;;;;;;11.19;100.00;101206.78;5627864;26;20011;-74
2024/04/17 10:01:50;;;;;;;6.90;1.02;;;;;;;11.08;100.00;101207.91;5622993;26;20003;-74
2024/04/17 10:04:22;;;;;;;3.35;1.10;;;;;;;11.11;100.00;101212.13;5627737;26;20446;-74
2024/04/17 10:06:54;;;;;;;2.50;0.95;;;;;;;11.24;100.00;101200.91;5625689;26;20032;-74
2024/04/17 10:09:28;;;;;;;6.22;1.15;;;;;;;11.37;100.00;101207.53;5631143;26;20006;-74
2024/04/17 10:12:00;;;;;;;7.68;1.00;;;;;;;11.44;100.00;101228.34;5618029;26;20753;-74
2024/04/17 10:14:31;;;;;;;1.52;0.75;;;;;;;11.25;100.00;101261.72;5623229;26;20003;-74
2024/04/17 10:17:02;;;;;;;3.90;0.80;;;;;;;10.85;100.00;101273.91;5628822;26;20007;-74
2024/04/17 10:19:33;;;;;;;1.63;0.63;;;;;;;9.67;100.00;101290.19;5621860;26;20018;-74
2024/04/17 10:22:05;;;;;;;6.47;0.93;;;;;;;8.28;100.00;101277.44;5620938;26;20002;-74
2024/04/17 10:24:36;;;;;;;4.22;1.20;;;;;;;7.34;100.00;101290.34;5620491;26;20036;-74
2024/04/17 10:27:06;;;;;;;6.40;1.67;;;;;;;6.82;100.00;101283.31;5623975;26;19998;-73
2024/04/17 10:29:42;;;;;;;4.93;1.42;;;;;;;6.57;100.00;101276.56;5622180;26;19999;-73
2024/04/17 10:32:14;;;;;;;6.20;1.80;;;;;;;6.45;100.00;101281.97;5613031;26;20015;-73
2024/04/17 10:34:47;;;;;;;3.80;1.73;;;;;;;6.44;100.00;101284.78;5619014;26;20076;-72
2024/04/17 10:37:18;;;;;;;2.35;1.80;;;;;;;6.45;100.00;101278.47;5620719;26;19994;-73
2024/04/17 10:39:49;;;;;;;4.95;1.48;;;;;;;6.57;100.00;101281.91;5619867;26;20014;-72
2024/04/17 10:42:20;;;;;;;2.15;1.60;;;;;;;6.79;100.00;101278.28;5622988;26;20770;-72
2024/04/17 10:44:51;;;;;;;7.78;2.17;;;;;;;6.96;100.00;101278.50;5618538;26;19998;-72
2024/04/17 10:47:25;;;;;;;8.25;1.70;;;;;;;7.09;100.00;101278.28;5623767;26;20010;-72
2024/04/17 10:49:58;;;;;;;3.67;1.88;;;;;;;7.03;100.00;101277.97;5627040;26;20007;-72
2024/04/17 10:52:30;;;;;;;4.28;1.80;;;;;;;7.15;100.00;101279.59;5609028;26;20368;-72
2024/04/17 10:55:02;;;;;;;5.03;1.70;;;;;;;7.22;100.00;101275.38;5620090;26;20010;-72
2024/04/17 10:57:32;;;;;;;3.90;1.88;;;;;;;7.42;100.00;101274.47;5620702;26;20014;-72
2024/04/17 11:00:04;;;;;;;5.22;2.38;;;;;;;7.87;100.00;101266.03;5621136;26;20505;-72
2024/04/17 11:02:34;;;;;;;4.72;2.40;;;;;;;8.31;100.00;101256.63;5619640;26;19999;-73
2024/04/17 11:05:05;;;;;;;3.42;2.58;;;;;;;8.77;100.00;101243.50;5622061;26;20481;-73
2024/04/17 11:07:36;;;;;;;11.73;5.38;;;;;;;9.33;100.00;101239.91;5620825;26;20405;-72
2024/04/17 11:10:12;;;;;;;2.92;2.13;;;;;;;9.71;100.00;101232.66;5604666;26;20078;-73
2024/04/17 11:12:42;;;;;;;;;;;;;;;10.04;100.00;101221.25;5611832;26;20029;-73
2024/04/17 11:15:13;;;;;;;1.90;1.30;;;;;;;10.42;100.00;101227.28;5615366;26;19925;-73
2024/04/17 11:17:44;;;;;;;3.88;0.70;;;;;;;10.69;100.00;101218.25;5629750;26;20047;-72
2024/04/17 11:20:16;;;;;;;2.83;1.20;;;;;;;11.09;100.00;101219.47;5620766;26;20079;-73
2024/04/17 11:22:46;;;;;;;1.85;0.80;;;;;;;11.49;100.00;101226.88;5610811;26;20073;-72
2024/04/17 11:25:18;;;;;;;2.05;1.00;;;;;;;11.81;100.00;101217.22;5619898;26;20006;-73
2024/04/17 11:27:49;;;;;;;1.30;1.20;;;;;;;12.00;100.00;101226.84;5621783;26;20003;-72
2024/04/17 11:30:20;;;;;;;2.60;2.35;;;;;;;12.29;100.00;101212.91;5622535;26;20003;-72
2024/04/17 11:32:50;;;;;;;1.27;0.70;;;;;;;12.49;100.00;101219.63;5623078;26;20459;-72